Terminal Aerodrome Forecast
Issued by NWS Grand Rapids, MI

Home | Current Version | Previous Version | Text Only | Print | Product List | Glossary On
Versions: 1 2 3 4 5 6 7 8 9 10 11 12 13 14 15 16 17
962
FTUS43 KGRR 110539
TAFGRR
TAF
KGRR 110539Z 1106/1206 31008KT P6SM -SHSN SCT020 BKN050
     FM111600 28009KT 3SM -SHSN OVC025
     FM112300 25007KT 6SM -SHSN BKN035=

USA.gov is the U.S. government's official web portal to all federal, state and local government web resources and services.